Latest Coastal Weather Observations for Dum In Mirrie

IDD60701

Issued at 9:41 am CST Sunday 11 December 2016 (issued every 10 minutes, with the page automatically refreshed every 10 minutes)

About coastal observations | Map of coastal stations | Coastal observations for NT | Marine services | Other Formats
Station Details ID: 014277 Name: DUM IN MIRRIE AIRSTRIP Lat: -12.63 Lon: 130.37 Height: 3.5 m
Data from the previous 72 hours. | See also: Recent months at Dum In Mirrie
Date/Time
CST
Temp
°C
Wind Pressure Rain since
9am
mm
Weather Cloud Vis
km
Sea
Height
m
Swell
Dir  Spd
kts
Gust
kts
hPa Trend Height
m
Period
s
Dir
11/09:30am 31.8 WNW 2 5 1009.5 - 0.0 - - - - - - -
11/09:00am 31.3 WNW 1 3 1009.4 - 0.8 - - - - - - -
11/08:30am 30.1 NNE 2 3 1009.1 - 0.8 - - - - - - -
11/08:00am 29.6 CALM 0 1 1009.1 - 0.8 - - - - - - -
11/07:30am 28.9 E 1 1 1008.7 - 0.8 - - - - - - -
11/07:00am 28.4 ESE 2 3 1008.4 - 0.8 - - - - - - -
11/06:30am 27.6 E 1 2 1008.3 - 0.8 - - - - - - -
11/06:00am 27.6 SE 1 2 1007.7 - 0.8 - - - - - - -
11/05:30am 27.7 ESE 2 4 1007.2 - 0.8 - - - - - - -
11/05:00am 28.0 CALM 0 0 1006.8 - 0.8 - - - - - - -
11/04:30am 28.2 NW 2 4 1006.8 - 0.8 - - - - - - -
11/04:00am 27.4 CALM 0 0 1006.3 - 0.6 - - - - - - -
11/03:30am 27.4 CALM 0 0 1006.2 - 0.6 - - - - - - -
11/03:00am 27.8 CALM 0 0 1006.8 - 0.6 - - - - - - -
11/02:30am 27.6 NE 4 7 1006.8 - 0.6 - - - - - - -
11/02:00am 27.9 CALM 0 0 1006.8 - 0.6 - - - - - - -
11/01:30am 27.6 SW 4 8 1007.3 - 0.6 - - - - - - -
11/01:00am 29.5 CALM 0 0 1007.3 - 0.0 - - - - - - -
11/12:30am 29.7 CALM 0 0 1008.0 - 0.0 - - - - - - -
11/12:00am 29.9 W 1 3 1008.1 - 0.0 - - - - - - -
 
Date/Time
CST
Temp
°C
Wind Pressure Rain since
9am
mm
Weather Cloud Vis
km
Sea
Height
m
Swell
Dir  Spd
kts
Gust
kts
hPa Trend Height
m
Period
s
Dir
10/11:30pm 30.3 W 3 6 1007.7 - 0.0 - - - - - - -
10/11:00pm 30.1 WNW 2 5 1007.7 - 0.0 - - - - - - -
10/10:30pm 30.2 W 2 5 1007.6 - 0.0 - - - - - - -
10/10:00pm 30.2 WNW 2 4 1007.7 - 0.0 - - - - - - -
10/09:30pm 30.2 WNW 3 5 1007.4 - 0.0 - - - - - - -
10/09:00pm 30.3 W 3 5 1007.3 - 0.0 - - - - - - -
10/08:30pm 30.4 WSW 2 5 1007.0 - 0.0 - - - - - - -
10/08:00pm 30.6 SW 3 5 1006.7 - 0.0 - - - - - - -
10/07:30pm 30.8 WSW 4 8 1006.5 - 0.0 - - - - - - -
10/07:00pm 30.9 W 4 8 1006.1 - 0.0 - - - - - - -
10/06:30pm 31.7 W 5 8 1005.9 - 0.0 - - - - - - -
10/06:00pm 32.5 W 5 9 1006.0 - 0.0 - - - - - - -
10/05:30pm 32.6 W 5 10 1005.9 - 0.0 - - - - - - -
10/05:00pm 33.2 W 5 9 1005.5 - 0.0 - - - - - - -
10/04:30pm 33.1 W 5 9 1005.6 - 0.0 - - - - - - -
10/04:00pm 32.7 W 5 9 1006.0 - 0.0 - - - - - - -
10/03:30pm 32.9 W 5 7 1006.2 - 0.0 - - - - - - -
10/03:00pm 33.7 W 6 9 1006.5 - 0.0 - - - - - - -
10/02:30pm 33.5 W 5 7 1006.9 - 0.0 - - - - - - -
10/02:00pm 33.6 WNW 4 7 1007.3 - 0.0 - - - - - - -
10/01:30pm 33.1 WNW 5 8 1007.9 - 0.0 - - - - - - -
10/01:00pm 32.6 NW 4 7 1008.5 - 0.0 - - - - - - -
10/12:30pm 32.4 NW 5 9 1009.1 - 0.0 - - - - - - -
10/12:00pm 32.9 W 5 8 1009.6 - 0.0 - - - - - - -
10/11:30am 34.2 ESE 2 6 1010.0 - 0.0 - - - - - - -
10/11:00am 33.7 NNE 3 6 1010.3 - 0.0 - - - - - - -
10/10:30am 33.2 NNE 4 9 1010.4 - 0.0 - - - - - - -
10/10:00am 33.1 E 3 6 1010.2 - 0.0 - - - - - - -
10/09:30am 31.9 ENE 4 6 1010.4 - 0.0 - - - - - - -
10/09:00am 31.9 E 5 7 1010.5 - 0.0 - - - - - - -
10/08:30am 31.7 ESE 4 6 1010.2 - 0.0 - - - - - - -
10/08:00am 30.9 E 2 4 1009.9 - 0.0 - - - - - - -
10/07:30am 29.6 ESE 1 2 1009.3 - 0.0 - - - - - - -
10/07:00am 27.7 E 2 3 1008.9 - 0.0 - - - - - - -
10/06:30am 25.7 CALM 0 0 1008.5 - 0.0 - - - - - - -
10/06:00am 26.0 CALM 0 0 1008.0 - 0.0 - - - - - - -
10/05:30am 26.2 CALM 0 0 1007.5 - 0.0 - - - - - - -
10/05:00am 26.4 CALM 0 0 1007.2 - 0.0 - - - - - - -
10/04:30am 26.8 CALM 0 0 1007.0 - 0.0 - - - - - - -
10/04:00am 28.1 NNW 1 2 1006.8 - 0.0 - - - - - - -
10/03:30am 28.9 NNW 2 3 1006.8 - 0.0 - - - - - - -
10/03:00am 29.0 N 2 5 1006.7 - 0.0 - - - - - - -
10/02:30am 29.3 N 2 5 1006.9 - 0.0 - - - - - - -
10/02:00am 29.5 NNW 3 7 1007.1 - 0.0 - - - - - - -
10/01:30am 29.7 N 5 8 1007.3 - 0.0 - - - - - - -
10/01:00am 29.7 NNW 4 7 1007.6 - 0.0 - - - - - - -
10/12:30am 29.9 N 6 9 1007.9 - 0.0 - - - - - - -
10/12:00am 30.0 N 5 9 1008.2 - 0.0 - - - - - - -
 
Date/Time
CST
Temp
°C
Wind Pressure Rain since
9am
mm
Weather Cloud Vis
km
Sea
Height
m
Swell
Dir  Spd
kts
Gust
kts
hPa Trend Height
m
Period
s
Dir
09/11:30pm 30.0 N 4 9 1008.3 - 0.0 - - - - - - -
09/11:00pm 30.2 N 6 10 1008.3 - 0.0 - - - - - - -
09/10:30pm 30.2 N 4 8 1008.1 - 0.0 - - - - - - -
09/10:00pm 30.4 N 5 10 1008.0 - 0.0 - - - - - - -
09/09:30pm 30.4 N 5 10 1007.7 - 0.0 - - - - - - -
09/09:00pm 30.3 N 5 10 1007.5 - 0.0 - - - - - - -
09/08:30pm 30.2 NNW 2 5 1007.3 - 0.0 - - - - - - -
09/08:00pm 29.8 NNW 2 3 1006.8 - 0.0 - - - - - - -
09/07:30pm 30.2 NNW 1 3 1006.3 - 0.0 - - - - - - -
09/07:00pm 30.4 CALM 0 0 1005.7 - 0.0 - - - - - - -
09/06:30pm 30.9 W 2 4 1005.5 - 0.0 - - - - - - -
09/06:00pm 31.1 WNW 3 5 1005.1 - 0.0 - - - - - - -
09/05:30pm 30.8 W 3 7 1005.2 - 0.0 - - - - - - -
09/05:00pm 32.5 W 3 7 1005.1 - 0.0 - - - - - - -
09/04:30pm 33.5 WNW 5 8 1004.6 - 0.0 - - - - - - -
09/04:00pm 33.4 WNW 5 9 1004.7 - 0.0 - - - - - - -
09/03:30pm 33.7 WNW 5 9 1005.0 - 0.0 - - - - - - -
09/03:00pm 33.7 WNW 5 10 1005.4 - 0.0 - - - - - - -
09/02:30pm 33.6 WNW 5 8 1005.7 - 0.0 - - - - - - -
09/02:00pm 33.8 WNW 6 10 1006.2 - 0.0 - - - - - - -
09/01:30pm 33.5 WNW 4 7 1006.5 - 0.0 - - - - - - -
09/01:00pm 33.3 NW 3 7 1006.9 - 0.0 - - - - - - -
09/12:30pm 33.5 NW 5 8 1007.4 - 0.0 - - - - - - -
09/12:00pm 32.6 WNW 4 8 1007.6 - 0.0 - - - - - - -
09/11:30am 32.4 WNW 3 6 1007.8 - 0.0 - - - - - - -
09/11:00am 32.7 WNW 4 7 1007.9 - 0.0 - - - - - - -
09/10:30am 31.6 W 3 5 1008.2 - 0.0 - - - - - - -
09/10:00am 31.9 WSW 3 6 1008.4 - 0.0 - - - - - - -
09/09:30am 32.5 W 3 5 1008.3 - 0.0 - - - - - - -
09/09:00am 32.2 NW 3 4 1008.2 - 0.0 - - - - - - -
09/08:30am 31.4 NW 2 4 1008.1 - 0.0 - - - - - - -
09/08:00am 31.6 NW 3 5 1007.9 - 0.0 - - - - - - -
09/07:30am 31.1 NNW 1 3 1007.6 - 0.0 - - - - - - -
09/07:00am 29.8 NNW 2 3 1007.2 - 0.0 - - - - - - -
09/06:30am 29.0 NNW 1 1 1006.9 - 0.0 - - - - - - -
09/06:00am 29.7 NNW 1 3 1006.3 - 0.0 - - - - - - -
09/05:30am 30.0 NNW 3 5 1006.0 - 0.0 - - - - - - -
09/05:00am 29.9 NW 2 4 1005.6 - 0.0 - - - - - - -
09/04:30am 29.4 NW 2 4 1005.4 - 0.0 - - - - - - -
09/04:00am 29.2 NNW 2 3 1005.5 - 0.0 - - - - - - -
09/03:30am 29.5 NW 2 3 1005.6 - 0.0 - - - - - - -
09/03:00am 30.0 NW 3 5 1005.5 - 0.0 - - - - - - -
09/02:30am 30.0 NW 3 7 1005.6 - 0.0 - - - - - - -
09/02:00am 30.0 NW 2 4 1005.8 - 0.0 - - - - - - -
09/01:30am 30.3 NW 2 5 1006.2 - 0.0 - - - - - - -
09/01:00am 30.3 NW 3 5 1006.2 - 0.0 - - - - - - -
09/12:30am 30.5 WNW 3 5 1006.1 - 0.0 - - - - - - -
09/12:00am 30.5 WNW 3 5 1006.3 - 0.0 - - - - - - -
 
Date/Time
CST
Temp
°C
Wind Pressure Rain since
9am
mm
Weather Cloud Vis
km
Sea
Height
m
Swell
Dir  Spd
kts
Gust
kts
hPa Trend Height
m
Period
s
Dir
08/11:30pm 30.7 WNW 3 6 1006.0 - 0.0 - - - - - - -
08/11:00pm 30.6 WNW 3 6 1006.3 - 0.0 - - - - - - -
08/10:30pm 30.7 WNW 4 7 1006.1 - 0.0 - - - - - - -
08/10:00pm 30.7 WNW 4 7 1005.7 - 0.0 - - - - - - -
08/09:30pm 30.8 W 5 9 1005.6 - 0.0 - - - - - - -
08/09:00pm 30.8 WNW 3 6 1005.8 - 0.0 - - - - - - -
08/08:30pm 30.9 W 5 8 1005.5 - 0.0 - - - - - - -
08/08:00pm 31.0 W 4 8 1005.2 - 0.0 - - - - - - -
08/07:30pm 31.0 W 5 9 1004.8 - 0.0 - - - - - - -
08/07:00pm 31.3 W 6 12 1004.5 - 0.0 - - - - - - -
08/06:30pm 31.8 W 5 8 1004.3 - 0.0 - - - - - - -
08/06:00pm 32.6 W 6 11 1004.1 - 0.0 - - - - - - -
08/05:30pm 32.7 W 5 10 1004.0 - 0.0 - - - - - - -
08/05:00pm 32.7 W 7 12 1003.8 - 0.0 - - - - - - -
08/04:30pm 33.8 W 7 11 1004.0 - 0.0 - - - - - - -
08/04:00pm 33.9 W 6 9 1004.1 - 0.0 - - - - - - -
08/03:30pm 33.6 W 6 9 1004.0 - 0.0 - - - - - - -
08/03:00pm 33.9 WNW 6 13 1004.3 - 0.0 - - - - - - -
08/02:30pm 34.2 WNW 6 11 1004.6 - 0.0 - - - - - - -
08/02:00pm 33.9 W 5 8 1005.0 - 0.0 - - - - - - -
08/01:30pm 33.6 WNW 5 8 1005.4 - 0.0 - - - - - - -
08/01:00pm 33.7 W 5 9 1005.9 - 0.0 - - - - - - -
08/12:30pm 33.0 WNW 4 10 1006.4 - 0.0 - - - - - - -
08/12:00pm 33.7 WNW 5 10 1006.6 - 0.0 - - - - - - -
08/11:30am 33.8 WNW 5 7 1006.9 - 0.0 - - - - - - -
08/11:00am 33.1 NW 4 7 1007.4 - 0.0 - - - - - - -
08/10:30am 33.3 NNW 4 8 1007.7 - 0.0 - - - - - - -
08/10:00am 31.6 N 5 8 1008.1 - 0.0 - - - - - - -

Other Formats:

Comma delimited format used in spreadsheet applications
http://www.bom.gov.au/fwo/IDD60701/IDD60701.94116.axf

JavaScript Object Notation format (JSON) in row-major order
http://www.bom.gov.au/fwo/IDD60701/IDD60701.94116.json